Time;durP1;ratioP1;P1;durP2;ratioP2;P2;SDS_P1;SDS_P2;PMS_P1;PMS_P2;Temp;Humidity;BMP_temperature;BMP_pressure;BME280_temperature;BME280_humidity;BME280_pressure;Samples;Min_cycle;Max_cycle;Signal;HPM_P1;HPM_P2
2021/08/08 00:00:08;;;;;;;2.67;1.50;;;;;;;17.40;91.54;99704.47;5075147;28;20166;-68
2021/08/08 00:02:37;;;;;;;2.13;1.20;;;;;;;17.42;91.47;99696.22;5092012;28;20193;-68
2021/08/08 00:05:06;;;;;;;5.93;1.73;;;;;;;17.39;92.06;99696.53;5075150;28;20204;-68
2021/08/08 00:07:31;;;;;;;4.53;1.77;;;;;;;17.31;92.65;99697.31;5075112;28;20181;-69
2021/08/08 00:09:57;;;;;;;3.67;1.90;;;;;;;17.27;93.49;99695.06;5093488;28;20194;-68
2021/08/08 00:12:22;;;;;;;2.90;1.60;;;;;;;17.26;93.49;99693.38;5093446;28;20694;-68
2021/08/08 00:14:47;;;;;;;3.70;1.77;;;;;;;17.21;94.18;99698.38;5074910;28;20665;-68
2021/08/08 00:17:12;;;;;;;4.57;1.80;;;;;;;17.22;93.89;99698.22;5093313;28;20208;-68
2021/08/08 00:19:38;;;;;;;4.47;2.20;;;;;;;17.16;94.48;99698.81;5075023;28;20162;-68
2021/08/08 00:22:03;;;;;;;3.10;1.80;;;;;;;17.21;94.60;99699.22;5092869;28;20178;-68
2021/08/08 00:24:28;;;;;;;4.37;2.10;;;;;;;17.12;94.97;99695.59;5093236;28;20166;-68
2021/08/08 00:26:54;;;;;;;2.30;2.00;;;;;;;16.99;96.35;99697.75;5074920;28;20197;-68
2021/08/08 00:29:19;;;;;;;2.80;1.50;;;;;;;16.97;96.71;99688.13;5092916;28;20204;-68
2021/08/08 00:31:45;;;;;;;3.40;1.83;;;;;;;16.87;97.58;99688.19;5075005;28;20202;-68
2021/08/08 00:34:10;;;;;;;2.90;1.77;;;;;;;16.84;97.60;99683.94;5074752;28;20181;-68
2021/08/08 00:36:35;;;;;;;3.50;1.90;;;;;;;16.81;98.64;99688.78;5093159;28;20245;-68
2021/08/08 00:39:02;;;;;;;5.60;1.80;;;;;;;16.88;98.23;99696.13;5074665;28;20208;-68
2021/08/08 00:41:27;;;;;;;3.47;1.93;;;;;;;16.71;99.08;99694.19;5074814;28;20174;-68
2021/08/08 00:43:53;;;;;;;4.13;1.83;;;;;;;16.69;99.80;99692.63;5074801;28;20586;-68
2021/08/08 00:46:18;;;;;;;4.47;2.30;;;;;;;16.70;99.56;99697.03;5093020;28;20171;-68
2021/08/08 00:48:43;;;;;;;5.00;1.90;;;;;;;16.69;99.93;99693.50;5092900;28;20196;-68
2021/08/08 00:51:08;;;;;;;5.20;2.20;;;;;;;16.68;100.00;99699.03;5092645;28;20170;-68
2021/08/08 00:53:34;;;;;;;2.73;1.80;;;;;;;16.64;100.00;99700.28;5093258;28;20229;-68
2021/08/08 00:55:59;;;;;;;3.43;1.90;;;;;;;16.59;100.00;99703.44;5092740;28;20657;-68
2021/08/08 00:58:26;;;;;;;3.63;1.93;;;;;;;16.57;100.00;99703.56;5091629;28;20197;-68
2021/08/08 01:00:53;;;;;;;2.87;2.10;;;;;;;16.58;100.00;99707.97;5075181;28;20194;-68
2021/08/08 01:03:21;;;;;;;3.63;2.10;;;;;;;16.56;100.00;99706.41;5074652;28;20258;-68
2021/08/08 01:05:51;;;;;;;4.30;2.27;;;;;;;16.52;100.00;99710.41;5096745;28;20687;-68
2021/08/08 01:08:22;;;;;;;5.07;2.07;;;;;;;16.46;100.00;99711.84;5078382;28;20170;-68
2021/08/08 01:10:47;;;;;;;4.77;2.10;;;;;;;16.47;100.00;99708.16;5078638;28;20190;-68
2021/08/08 01:13:13;;;;;;;3.97;2.40;;;;;;;16.44;100.00;99715.66;5096357;28;20250;-68
2021/08/08 01:15:41;;;;;;;7.00;3.53;;;;;;;16.55;100.00;99716.34;5078461;28;20177;-68
2021/08/08 01:18:06;;;;;;;5.13;2.50;;;;;;;16.49;100.00;99721.47;5078110;28;20225;-68
2021/08/08 01:20:32;;;;;;;5.97;2.50;;;;;;;16.38;100.00;99717.09;5078298;28;20194;-68
2021/08/08 01:23:01;;;;;;;4.87;2.33;;;;;;;16.39;100.00;99709.88;5077955;28;20227;-68
2021/08/08 01:25:26;;;;;;;5.30;2.10;;;;;;;16.41;100.00;99700.66;5078530;28;20558;-68
2021/08/08 01:27:53;;;;;;;6.97;2.40;;;;;;;16.33;100.00;99705.91;5078026;28;20174;-69
2021/08/08 01:30:19;;;;;;;2.73;2.10;;;;;;;16.30;100.00;99706.19;5077797;28;20194;-69
2021/08/08 01:32:44;;;;;;;3.20;2.00;;;;;;;16.24;100.00;99714.84;5095864;28;20303;-69
2021/08/08 01:35:10;;;;;;;3.37;2.30;;;;;;;16.24;100.00;99714.84;5095922;28;20166;-68
2021/08/08 01:37:35;;;;;;;5.63;2.10;;;;;;;16.29;100.00;99712.56;5077863;28;20178;-69
2021/08/08 01:40:08;;;;;;;4.23;2.50;;;;;;;16.20;100.00;99713.44;5078012;28;20182;-68
2021/08/08 01:42:34;;;;;;;5.57;2.20;;;;;;;16.18;100.00;99716.28;5077621;28;20706;-69
2021/08/08 01:45:01;;;;;;;4.57;2.40;;;;;;;16.17;100.00;99719.97;5095775;28;20257;-68
2021/08/08 01:47:30;;;;;;;4.23;2.50;;;;;;;16.15;100.00;99716.56;5077693;28;20201;-69
2021/08/08 01:49:57;;;;;;;3.13;2.30;;;;;;;16.14;100.00;99722.09;5077435;28;20186;-69
2021/08/08 01:52:22;;;;;;;5.17;2.37;;;;;;;16.15;100.00;99713.88;5077458;28;20190;-69
2021/08/08 01:54:48;;;;;;;6.43;2.40;;;;;;;16.13;100.00;99715.00;5077574;28;20216;-69
2021/08/08 01:57:13;;;;;;;5.10;2.50;;;;;;;16.18;100.00;99718.13;5077613;28;20228;-68
2021/08/08 01:59:39;;;;;;;4.43;2.47;;;;;;;16.19;100.00;99717.13;5077412;28;20166;-69
2021/08/08 02:02:22;;;;;;;4.53;2.40;;;;;;;16.23;100.00;99719.38;5095612;28;20243;-69
2021/08/08 02:04:47;;;;;;;4.77;2.80;;;;;;;16.14;100.00;99728.31;5077513;28;20164;-69
2021/08/08 02:07:14;;;;;;;5.20;3.20;;;;;;;16.09;100.00;99724.38;5095511;28;20167;-69
2021/08/08 02:09:40;;;;;;;5.27;2.70;;;;;;;16.08;100.00;99728.06;5077210;28;20206;-69
2021/08/08 02:12:06;;;;;;;4.20;2.77;;;;;;;16.03;100.00;99725.78;5077166;28;20226;-69
2021/08/08 02:14:32;;;;;;;7.00;3.13;;;;;;;15.97;100.00;99720.09;5077083;28;20166;-69
2021/08/08 02:16:57;;;;;;;4.23;2.93;;;;;;;15.95;100.00;99718.41;5075895;28;20178;-69
2021/08/08 02:19:22;;;;;;;4.80;3.10;;;;;;;15.99;100.00;99728.91;5077451;28;20175;-68
2021/08/08 02:21:48;;;;;;;5.37;3.30;;;;;;;15.94;100.00;99721.25;5077058;28;20593;-69
2021/08/08 02:24:13;;;;;;;7.63;3.50;;;;;;;15.91;100.00;99732.28;5093780;28;20212;-69
2021/08/08 02:26:38;;;;;;;5.53;3.57;;;;;;;15.88;100.00;99733.44;5095257;28;20220;-69
2021/08/08 02:29:04;;;;;;;3.50;3.17;;;;;;;15.83;100.00;99734.84;5096222;28;20186;-69
2021/08/08 02:31:36;;;;;;;6.50;3.83;;;;;;;15.84;100.00;99734.69;5076778;28;20604;-69
2021/08/08 02:34:02;;;;;;;8.03;3.40;;;;;;;15.91;100.00;99732.28;5076452;28;20251;-69
2021/08/08 02:36:28;;;;;;;5.30;3.60;;;;;;;15.84;100.00;99734.69;5076787;28;20170;-68
2021/08/08 02:38:53;;;;;;;6.20;4.53;;;;;;;15.82;100.00;99730.47;5096668;28;20166;-69
2021/08/08 02:41:18;;;;;;;6.93;4.10;;;;;;;15.76;100.00;99737.25;5102271;28;20197;-69
2021/08/08 02:43:43;;;;;;;8.27;4.37;;;;;;;15.75;100.00;99735.56;5087139;28;20193;-70
2021/08/08 02:46:09;;;;;;;7.90;4.00;;;;;;;15.77;100.00;99730.03;5084966;28;20170;-70
2021/08/08 02:48:35;;;;;;;7.80;4.00;;;;;;;15.74;100.00;99736.53;5097945;28;20223;-69
2021/08/08 02:51:00;;;;;;;7.40;4.50;;;;;;;15.74;100.00;99736.53;5094742;28;20177;-69
2021/08/08 02:53:25;;;;;;;6.90;4.03;;;;;;;15.73;100.00;99734.84;5094647;28;20191;-68
2021/08/08 02:55:51;;;;;;;5.13;4.13;;;;;;;15.75;100.00;99738.25;5094565;28;20170;-69
2021/08/08 02:58:16;;;;;;;6.20;4.40;;;;;;;15.78;100.00;99739.81;5076278;28;20177;-69
2021/08/08 03:00:41;;;;;;;5.83;3.83;;;;;;;15.77;100.00;99735.41;5076198;28;20174;-69
2021/08/08 03:03:07;;;;;;;4.93;4.00;;;;;;;15.75;100.00;99738.25;5076825;28;20202;-69
2021/08/08 03:05:32;;;;;;;4.27;3.70;;;;;;;15.73;100.00;99734.84;5076401;28;20638;-68
2021/08/08 03:07:57;;;;;;;6.80;4.60;;;;;;;15.71;100.00;99731.44;5094418;28;20515;-69
2021/08/08 03:10:23;;;;;;;6.97;4.50;;;;;;;15.70;100.00;99731.59;5094071;28;20193;-69
2021/08/08 03:12:48;;;;;;;5.80;4.10;;;;;;;15.64;100.00;99733.00;5075850;28;20182;-69
2021/08/08 03:15:14;;;;;;;7.30;4.27;;;;;;;15.72;100.00;99732.31;5093968;28;20576;-69
2021/08/08 03:17:39;;;;;;;5.23;4.27;;;;;;;15.71;100.00;99742.22;5075945;28;20213;-69
2021/08/08 03:20:05;;;;;;;6.03;3.80;;;;;;;15.76;100.00;99744.47;5093909;28;20177;-68
2021/08/08 03:22:30;;;;;;;7.90;4.03;;;;;;;15.78;100.00;99748.72;5075683;28;20205;-68
2021/08/08 03:24:56;;;;;;;7.07;3.73;;;;;;;15.77;100.00;99759.63;5094195;28;20170;-68
2021/08/08 03:27:21;;;;;;;5.13;3.60;;;;;;;15.74;100.00;99755.38;5093439;28;20177;-68
2021/08/08 03:29:46;;;;;;;6.30;4.33;;;;;;;15.74;100.00;99763.44;5093700;28;20221;-68
2021/08/08 03:32:12;;;;;;;7.60;4.57;;;;;;;15.68;100.00;99766.69;5093622;28;20198;-69
2021/08/08 03:34:37;;;;;;;7.00;4.13;;;;;;;15.82;100.00;99763.59;5093809;28;20633;-68
2021/08/08 03:37:02;;;;;;;5.17;3.70;;;;;;;15.78;100.00;99762.19;5075832;28;20170;-69
2021/08/08 03:39:28;;;;;;;4.83;3.60;;;;;;;15.80;100.00;99768.25;5075714;28;20173;-70
2021/08/08 03:41:53;;;;;;;4.23;3.63;;;;;;;15.78;100.00;99769.41;5075815;28;20220;-69
2021/08/08 03:44:19;;;;;;;6.33;3.67;;;;;;;15.83;100.00;99764.44;5093975;28;20256;-69
2021/08/08 03:46:44;;;;;;;4.47;3.40;;;;;;;15.86;100.00;99772.22;5094126;28;20170;-69
2021/08/08 03:49:11;;;;;;;5.20;3.60;;;;;;;15.83;100.00;99778.75;5094125;28;20194;-69
2021/08/08 03:51:36;;;;;;;6.13;3.83;;;;;;;15.85;100.00;99778.59;5094781;28;20166;-69
2021/08/08 03:54:02;;;;;;;5.43;3.87;;;;;;;15.86;100.00;99773.06;5093411;28;20247;-68
2021/08/08 03:56:27;;;;;;;9.97;4.13;;;;;;;15.93;100.00;99784.13;5093496;28;20174;-68
2021/08/08 03:58:52;;;;;;;6.70;3.63;;;;;;;15.90;100.00;99779.88;5075311;28;20178;-68
2021/08/08 04:01:18;;;;;;;4.13;3.60;;;;;;;15.79;100.00;99785.41;5075054;28;20700;-68
2021/08/08 04:03:43;;;;;;;5.97;3.63;;;;;;;15.91;100.00;99789.66;5092984;28;20194;-68
2021/08/08 04:06:08;;;;;;;5.80;3.90;;;;;;;16.02;100.00;99790.53;5075888;28;20206;-68
2021/08/08 04:08:33;;;;;;;6.37;3.97;;;;;;;15.95;100.00;99795.59;5093379;28;20576;-68
2021/08/08 04:10:59;;;;;;;3.70;2.97;;;;;;;16.11;100.00;99797.75;5093275;28;20198;-73
2021/08/08 04:13:24;;;;;;;5.77;3.13;;;;;;;16.06;100.00;99789.25;5093002;28;20239;-68
2021/08/08 04:15:49;;;;;;;7.03;3.50;;;;;;;15.98;100.00;99798.00;5074953;28;20177;-68
2021/08/08 04:18:15;;;;;;;5.70;3.47;;;;;;;16.01;100.00;99792.38;5074988;28;20191;-68
2021/08/08 04:20:40;;;;;;;5.87;3.00;;;;;;;16.17;100.00;99800.72;5075048;28;20584;-68
2021/08/08 04:23:07;;;;;;;5.10;3.33;;;;;;;16.12;100.00;99805.69;5091519;28;20198;-69
2021/08/08 04:25:33;;;;;;;7.10;3.07;;;;;;;16.26;100.00;99805.25;5075189;28;20223;-68
2021/08/08 04:27:58;;;;;;;6.17;3.40;;;;;;;16.21;100.00;99810.22;5075083;28;20204;-69
2021/08/08 04:30:23;;;;;;;6.57;3.27;;;;;;;16.38;100.00;99797.03;5075148;28;20640;-68
2021/08/08 04:32:49;;;;;;;5.60;3.07;;;;;;;16.27;100.00;99792.63;5106042;22;20228;-70
2021/08/08 04:35:14;;;;;;;4.13;3.40;;;;;;;16.33;100.00;99801.97;5115797;28;20184;-70
2021/08/08 04:37:39;;;;;;;4.93;3.03;;;;;;;16.38;100.00;99800.59;5135093;28;20191;-69
2021/08/08 04:40:05;;;;;;;5.83;3.27;;;;;;;16.29;100.00;99801.41;5135790;27;20169;-70
2021/08/08 04:42:35;;;;;;;6.87;3.23;;;;;;;16.33;100.00;99808.22;5119730;27;20208;-70
2021/08/08 04:45:00;;;;;;;4.13;2.80;;;;;;;16.41;100.00;99813.75;5119699;27;20172;-70
2021/08/08 04:47:25;;;;;;;6.13;2.97;;;;;;;16.39;100.00;99802.28;5119693;27;20177;-70
2021/08/08 04:49:51;;;;;;;6.13;2.97;;;;;;;16.52;100.00;99818.97;5136710;27;20560;-70
2021/08/08 04:52:16;;;;;;;4.37;2.87;;;;;;;16.61;100.00;99811.03;5136596;27;20169;-70
2021/08/08 04:54:41;;;;;;;3.73;2.50;;;;;;;16.66;100.00;99819.56;5119697;27;20227;-70
2021/08/08 04:57:07;;;;;;;6.70;2.90;;;;;;;16.53;100.00;99814.44;5136732;27;20169;-70
2021/08/08 04:59:32;;;;;;;7.03;2.30;;;;;;;16.77;100.00;99816.72;5136422;27;20169;-71
2021/08/08 05:01:57;;;;;;;3.50;2.40;;;;;;;16.84;100.00;99812.44;5136783;27;20514;-71
2021/08/08 05:04:23;;;;;;;3.13;2.20;;;;;;;16.76;99.68;99817.72;5119168;27;20202;-70
2021/08/08 05:06:48;;;;;;;4.13;2.77;;;;;;;16.97;98.76;99823.75;5119297;27;20172;-68
2021/08/08 05:09:13;;;;;;;3.07;2.30;;;;;;;17.08;97.41;99823.56;5119199;27;20200;-69
2021/08/08 05:11:38;;;;;;;3.60;2.10;;;;;;;17.12;97.16;99814.22;5119183;27;20541;-69
2021/08/08 05:14:04;;;;;;;2.97;2.20;;;;;;;17.06;97.43;99833.63;5119223;27;20692;-69
2021/08/08 05:16:29;;;;;;;4.03;2.50;;;;;;;17.03;96.58;99844.72;5136451;27;20188;-70
2021/08/08 05:18:54;;;;;;;4.77;3.17;;;;;;;17.02;97.32;99842.16;5136305;27;20637;-70
2021/08/08 05:21:20;;;;;;;3.67;1.93;;;;;;;16.98;96.98;99846.16;5118803;27;20184;-70
2021/08/08 05:23:45;;;;;;;8.27;2.77;;;;;;;17.11;95.82;99838.63;5136017;27;20276;-70
2021/08/08 05:26:10;;;;;;;5.37;2.17;;;;;;;16.99;97.31;99843.31;5136253;27;20640;-70
2021/08/08 05:28:40;;;;;;;3.47;2.93;;;;;;;17.01;95.61;99846.72;5137298;27;20165;-70
2021/08/08 05:31:05;;;;;;;4.73;2.67;;;;;;;17.16;95.44;99842.56;5136414;27;20176;-70
2021/08/08 05:33:31;;;;;;;3.67;1.90;;;;;;;17.08;95.90;99838.88;5135679;27;20216;-70
2021/08/08 05:35:56;;;;;;;4.90;2.57;;;;;;;17.34;94.02;99842.63;5118642;27;20571;-70
2021/08/08 05:38:21;;;;;;;3.13;2.03;;;;;;;17.12;94.18;99859.19;5137745;27;20216;-70
2021/08/08 05:40:48;;;;;;;4.47;2.13;;;;;;;17.26;94.44;99858.72;5120265;27;20188;-71
2021/08/08 05:43:14;;;;;;;2.80;2.30;;;;;;;17.42;92.60;99858.06;5139480;27;20189;-71
2021/08/08 05:45:41;;;;;;;7.13;2.10;;;;;;;17.30;93.13;99859.25;5138986;27;20176;-69
2021/08/08 05:48:07;;;;;;;3.43;2.00;;;;;;;17.26;93.51;99857.84;5141311;27;20165;-70
2021/08/08 05:50:32;;;;;;;4.03;2.07;;;;;;;17.37;92.19;99861.22;5141620;27;20221;-69
2021/08/08 05:52:58;;;;;;;4.47;1.90;;;;;;;17.33;91.67;99856.25;5130131;27;20200;-71
2021/08/08 05:55:23;;;;;;;4.10;1.97;;;;;;;17.52;90.32;99867.00;5139691;27;20247;-71
2021/08/08 05:57:48;;;;;;;5.10;1.73;;;;;;;17.68;89.38;99863.66;5147365;27;20601;-69
2021/08/08 06:00:14;;;;;;;3.53;1.87;;;;;;;17.75;88.50;99868.31;5140339;27;20187;-71
2021/08/08 06:02:39;;;;;;;2.53;1.80;;;;;;;17.81;88.27;99869.56;5138213;27;20280;-71
2021/08/08 06:05:05;;;;;;;2.50;1.87;;;;;;;17.87;86.67;99881.63;5140798;27;20649;-71
2021/08/08 06:07:30;;;;;;;3.90;2.03;;;;;;;17.89;85.10;99872.38;5145835;27;20185;-71
2021/08/08 06:09:56;;;;;;;10.10;5.07;;;;;;;17.92;85.39;99879.31;5128236;27;20695;-71
2021/08/08 06:12:21;;;;;;;4.37;1.83;;;;;;;18.03;83.74;99876.41;5143160;27;20172;-70
2021/08/08 06:14:46;;;;;;;5.90;2.10;;;;;;;18.02;82.23;99886.34;5141726;27;20173;-72
2021/08/08 06:17:11;;;;;;;2.53;1.63;;;;;;;17.72;83.56;99878.56;5119454;27;20655;-71
2021/08/08 06:19:37;;;;;;;2.27;1.50;;;;;;;18.01;82.75;99879.25;5141634;27;20177;-71
2021/08/08 06:22:02;;;;;;;6.43;2.50;;;;;;;18.11;81.20;99892.69;5138219;27;20226;-70
2021/08/08 06:24:28;;;;;;;2.93;1.80;;;;;;;18.07;81.15;99883.19;5137607;27;20656;-70
2021/08/08 06:26:53;;;;;;;1.63;1.20;;;;;;;17.98;81.82;99895.75;5138315;27;20176;-72
2021/08/08 06:29:18;;;;;;;3.53;1.80;;;;;;;17.95;81.84;99895.22;5136638;27;20204;-69
2021/08/08 06:31:43;;;;;;;2.00;1.30;;;;;;;18.13;80.66;99901.47;5136485;27;20587;-70
2021/08/08 06:34:10;;;;;;;3.50;1.50;;;;;;;18.13;79.78;99899.63;5139169;27;20240;-70
2021/08/08 06:36:35;;;;;;;4.17;1.60;;;;;;;18.22;79.46;99899.75;5139163;27;20177;-70
2021/08/08 06:39:04;;;;;;;2.40;1.23;;;;;;;18.01;80.01;99892.75;5139077;27;20169;-71
2021/08/08 06:41:30;;;;;;;3.20;1.60;;;;;;;18.02;80.03;99912.50;5119456;27;20267;-72
2021/08/08 06:43:56;;;;;;;3.43;1.37;;;;;;;18.31;78.81;99918.56;5136757;27;20205;-69
2021/08/08 06:46:21;;;;;;;3.63;1.37;;;;;;;18.21;78.36;99931.31;5136206;27;20504;-70
2021/08/08 06:48:46;;;;;;;1.47;1.20;;;;;;;18.28;78.12;99920.72;5135885;27;20177;-70
2021/08/08 06:51:12;;;;;;;3.37;1.33;;;;;;;18.30;77.54;99932.22;5134652;27;20169;-70
2021/08/08 06:53:37;;;;;;;3.40;1.70;;;;;;;18.39;77.35;99948.38;5135567;27;20188;-70
2021/08/08 06:56:07;;;;;;;4.87;1.93;;;;;;;18.46;76.49;99936.94;5119332;27;20540;-70
2021/08/08 06:58:32;;;;;;;4.53;1.93;;;;;;;18.50;75.97;99938.34;5119084;27;20177;-70
2021/08/08 07:00:57;;;;;;;3.07;1.23;;;;;;;18.53;77.39;99938.03;5137101;27;20633;-70
2021/08/08 07:03:23;;;;;;;3.60;1.70;;;;;;;18.69;75.90;99946.34;5136538;27;20203;-70
2021/08/08 07:05:48;;;;;;;3.33;1.90;;;;;;;18.61;75.85;99936.28;5134578;27;20230;-70
2021/08/08 07:08:13;;;;;;;1.90;1.30;;;;;;;18.64;75.34;99946.81;5134220;27;20645;-70
2021/08/08 07:10:39;;;;;;;2.30;1.43;;;;;;;18.58;75.83;99947.38;5135462;27;20240;-69
2021/08/08 07:13:04;;;;;;;3.67;1.33;;;;;;;18.54;75.35;99947.84;5134378;27;20195;-70
2021/08/08 07:15:30;;;;;;;2.97;1.27;;;;;;;18.73;74.40;99945.03;5117344;27;20177;-70
2021/08/08 07:17:55;;;;;;;2.73;1.53;;;;;;;18.88;74.40;99943.47;5118388;27;20202;-71
2021/08/08 07:20:20;;;;;;;1.93;1.40;;;;;;;19.03;74.13;99955.44;5137783;27;20197;-70
2021/08/08 07:22:46;;;;;;;4.27;1.80;;;;;;;19.04;73.16;99946.31;5147027;27;20201;-69
2021/08/08 07:25:11;;;;;;;3.00;1.50;;;;;;;19.15;73.64;99947.91;5149748;27;20168;-70
2021/08/08 07:27:36;;;;;;;3.30;1.50;;;;;;;19.16;73.27;99951.47;5148980;27;20188;-71
2021/08/08 07:30:03;;;;;;;3.93;1.50;;;;;;;19.26;73.00;99954.91;5122268;27;20250;-69
2021/08/08 07:32:28;;;;;;;2.37;1.40;;;;;;;19.29;72.72;99951.91;5139342;27;20184;-69
2021/08/08 07:34:53;;;;;;;2.77;1.27;;;;;;;19.05;73.71;99956.13;5138551;27;20169;-72
2021/08/08 07:37:21;;;;;;;2.77;1.30;;;;;;;19.25;71.88;99972.16;5119228;27;20629;-70
2021/08/08 07:39:46;;;;;;;2.17;1.13;;;;;;;19.31;71.95;99956.13;5139448;27;20169;-70
2021/08/08 07:42:11;;;;;;;2.00;1.67;;;;;;;19.27;71.90;99959.31;5138759;27;20549;-71
2021/08/08 07:44:37;;;;;;;4.30;1.30;;;;;;;19.21;71.66;99966.22;5134213;27;20200;-69
2021/08/08 07:47:02;;;;;;;2.83;1.33;;;;;;;19.03;72.52;99974.38;5135525;27;20204;-69
2021/08/08 07:49:28;;;;;;;3.30;1.30;;;;;;;19.17;71.56;99980.22;5134793;27;20250;-68
2021/08/08 07:51:53;;;;;;;2.07;1.17;;;;;;;19.24;71.42;99971.31;5134349;27;20184;-68
2021/08/08 07:54:20;;;;;;;3.33;1.43;;;;;;;19.55;70.36;99966.31;5135633;27;20196;-69
2021/08/08 07:56:46;;;;;;;3.30;1.50;;;;;;;19.39;70.40;99989.69;5135142;27;20172;-69
2021/08/08 07:59:11;;;;;;;1.97;1.00;;;;;;;19.26;70.09;99990.09;5116359;27;20655;-70
2021/08/08 08:01:38;;;;;;;2.17;1.20;;;;;;;19.16;69.57;99979.38;5133383;27;20181;-70
2021/08/08 08:04:04;;;;;;;3.43;1.00;;;;;;;19.21;69.54;99977.03;5116372;28;20604;-69
2021/08/08 08:06:29;;;;;;;2.47;1.37;;;;;;;19.20;69.43;99980.75;5134858;27;20220;-69
2021/08/08 08:08:54;;;;;;;2.50;1.10;;;;;;;19.28;69.06;99971.84;5117219;27;20212;-69
2021/08/08 08:11:20;;;;;;;4.20;1.30;;;;;;;19.38;69.24;99994.25;5134637;27;20176;-69
2021/08/08 08:13:45;;;;;;;3.37;1.30;;;;;;;19.61;66.93;99987.34;5133514;27;20205;-70
2021/08/08 08:16:10;;;;;;;4.57;1.00;;;;;;;19.54;66.54;99998.97;5141497;27;20173;-71
2021/08/08 08:18:35;;;;;;;2.53;1.10;;;;;;;19.49;66.03;99994.00;5140039;27;20176;-70
2021/08/08 08:21:01;;;;;;;2.87;0.97;;;;;;;19.47;65.58;99993.31;5142273;27;20173;-69
2021/08/08 08:23:26;;;;;;;1.97;0.90;;;;;;;19.56;64.75;99995.09;5138174;28;20188;-71
2021/08/08 08:25:52;;;;;;;1.13;0.80;;;;;;;19.41;65.76;99993.94;5140599;27;20195;-70
2021/08/08 08:28:17;;;;;;;1.40;1.00;;;;;;;19.28;65.81;99998.91;5140351;27;20537;-71
2021/08/08 08:30:42;;;;;;;2.77;0.90;;;;;;;19.38;65.70;99993.41;5139085;28;20196;-71
2021/08/08 08:33:08;;;;;;;2.50;0.97;;;;;;;19.24;66.10;100003.78;5141800;27;20211;-70
2021/08/08 08:35:33;;;;;;;2.37;1.00;;;;;;;19.38;66.22;99998.81;5136058;28;20168;-70
2021/08/08 08:37:59;;;;;;;1.63;1.00;;;;;;;19.93;65.28;99996.66;5141126;28;20173;-71
2021/08/08 08:40:25;;;;;;;3.53;0.93;;;;;;;19.95;64.68;99994.63;5136163;28;20167;-71
2021/08/08 08:42:51;;;;;;;2.33;0.87;;;;;;;20.15;62.65;99987.13;5143928;28;20188;-70
2021/08/08 08:45:18;;;;;;;4.53;1.10;;;;;;;20.35;62.78;99993.13;5133711;28;20208;-71
2021/08/08 08:47:44;;;;;;;1.93;1.00;;;;;;;20.41;62.63;100006.03;5131328;28;20641;-71
2021/08/08 08:50:10;;;;;;;2.70;1.30;;;;;;;20.11;63.67;99991.19;5143090;27;20241;-71
2021/08/08 08:52:36;;;;;;;2.97;1.00;;;;;;;20.22;63.17;100007.97;5134230;28;20559;-70
2021/08/08 08:55:02;;;;;;;1.50;1.00;;;;;;;20.24;63.16;99992.41;5133150;28;20169;-71
2021/08/08 08:57:28;;;;;;;2.47;0.97;;;;;;;20.97;62.16;99996.34;5116011;28;20683;-70
2021/08/08 08:59:53;;;;;;;1.40;0.83;;;;;;;21.13;60.46;100005.34;5116033;28;20205;-70
2021/08/08 09:02:19;;;;;;;2.17;1.33;;;;;;;21.48;60.29;100004.16;5133123;28;20188;-70
2021/08/08 09:04:44;;;;;;;2.37;1.43;;;;;;;21.40;60.15;100006.06;5132990;28;20572;-69
2021/08/08 09:07:09;;;;;;;1.13;1.00;;;;;;;21.15;60.19;100025.00;5133262;28;20632;-70
2021/08/08 09:09:37;;;;;;;3.10;1.90;;;;;;;20.72;61.83;100023.41;5133064;28;20688;-70
2021/08/08 09:12:02;;;;;;;3.47;1.77;;;;;;;20.42;62.51;100030.25;5133571;28;20161;-70
2021/08/08 09:14:27;;;;;;;2.90;1.30;;;;;;;20.33;62.54;100025.78;5134232;27;20196;-70
2021/08/08 09:16:55;;;;;;;3.63;1.57;;;;;;;20.24;63.16;100014.09;5133803;28;20637;-70
2021/08/08 09:19:24;;;;;;;1.73;1.00;;;;;;;20.01;63.81;100052.72;5116951;28;20659;-70
2021/08/08 09:21:50;;;;;;;2.10;1.10;;;;;;;19.84;64.00;100049.06;5134001;28;20169;-71
2021/08/08 09:24:26;;;;;;;1.90;1.23;;;;;;;19.90;63.67;100052.00;5138190;27;20197;-70
2021/08/08 09:27:07;;;;;;;2.13;1.50;;;;;;;20.02;62.77;100057.13;5141007;27;20173;-69
2021/08/08 09:29:34;;;;;;;3.83;1.40;;;;;;;19.86;63.58;100055.19;5141819;27;20223;-70
2021/08/08 09:32:01;;;;;;;1.90;1.20;;;;;;;20.03;63.51;100048.00;5127311;27;20169;-70
2021/08/08 09:34:37;;;;;;;1.53;1.07;;;;;;;19.95;64.39;100068.59;5152222;27;20196;-71
2021/08/08 09:37:05;;;;;;;1.43;1.03;;;;;;;18.96;71.34;100086.88;5155831;27;20175;-71
2021/08/08 09:39:36;;;;;;;4.87;1.83;;;;;;;17.76;79.97;100117.44;5155794;27;20170;-71
2021/08/08 09:42:05;;;;;;;7.13;1.30;;;;;;;17.21;82.13;100106.38;5137563;27;20169;-71
2021/08/08 09:44:30;;;;;;;3.60;1.40;;;;;;;17.18;84.37;100112.91;5153578;27;20189;-70
2021/08/08 09:46:56;;;;;;;1.87;1.40;;;;;;;17.19;82.64;100093.03;5154160;27;20218;-70
2021/08/08 09:49:23;;;;;;;2.33;1.33;;;;;;;17.29;81.66;100100.28;5155384;27;20189;-70
2021/08/08 09:51:51;;;;;;;2.63;1.23;;;;;;;17.38;80.07;100081.38;5143314;27;20179;-69
2021/08/08 09:54:16;;;;;;;2.50;1.30;;;;;;;17.53;80.66;100079.13;5119024;27;20630;-70
2021/08/08 09:56:41;;;;;;;2.30;1.50;;;;;;;17.95;79.22;100089.59;5136375;27;20203;-69
2021/08/08 09:59:07;;;;;;;1.20;1.10;;;;;;;18.48;76.79;100089.78;5137431;27;20573;-70
2021/08/08 10:01:39;;;;;;;5.07;1.20;;;;;;;18.69;73.22;100084.19;5136059;27;20195;-70
2021/08/08 10:04:05;;;;;;;1.73;1.20;;;;;;;19.09;73.04;100099.16;5135831;27;20201;-69
2021/08/08 10:06:30;;;;;;;2.27;1.40;;;;;;;19.48;71.17;100091.56;5118942;27;20169;-70
2021/08/08 10:08:56;;;;;;;1.17;1.00;;;;;;;19.75;70.72;100093.34;5135945;27;20173;-69
2021/08/08 10:11:21;;;;;;;3.87;1.17;;;;;;;19.72;69.16;100099.09;5139647;27;20621;-70
2021/08/08 10:13:52;;;;;;;3.50;1.23;;;;;;;19.67;69.23;100097.69;5122765;27;20189;-70
2021/08/08 10:16:19;;;;;;;1.93;1.00;;;;;;;19.44;68.81;100118.09;5140741;27;20164;-69
2021/08/08 10:18:47;;;;;;;2.00;1.20;;;;;;;19.55;68.70;100106.22;5142393;27;20599;-69
2021/08/08 10:21:13;;;;;;;2.10;1.30;;;;;;;19.77;68.37;100094.03;5141040;27;20165;-70
2021/08/08 10:23:39;;;;;;;2.27;1.00;;;;;;;19.81;67.97;100111.66;5136105;27;20229;-70
2021/08/08 10:26:05;;;;;;;2.50;1.20;;;;;;;19.76;67.81;100105.88;5135401;27;20576;-70
2021/08/08 10:28:31;;;;;;;1.57;1.10;;;;;;;20.23;66.67;100138.88;5118626;27;20667;-70
2021/08/08 10:30:59;;;;;;;2.20;1.17;;;;;;;20.41;65.34;100147.81;5135670;27;20189;-69
2021/08/08 10:33:24;;;;;;;2.67;0.90;;;;;;;20.24;66.29;100103.50;5119598;22;20228;-67
2021/08/08 10:35:51;;;;;;;6.27;1.73;;;;;;;20.40;65.29;100116.31;5077304;28;20178;-67
2021/08/08 10:38:16;;;;;;;2.50;1.67;;;;;;;21.11;64.13;100109.63;5076464;28;20171;-67
2021/08/08 10:40:43;;;;;;;3.13;1.60;;;;;;;21.45;63.44;100109.53;5076357;28;20166;-68
2021/08/08 10:43:21;;;;;;;4.03;1.83;;;;;;;21.59;61.67;100122.47;5076233;28;20281;-67
2021/08/08 10:45:46;;;;;;;2.27;1.10;;;;;;;21.17;62.90;100108.94;5094723;28;20201;-67
2021/08/08 10:48:14;;;;;;;2.57;1.30;;;;;;;21.74;61.64;100109.88;5094763;28;20210;-67
2021/08/08 10:50:44;;;;;;;8.50;1.03;;;;;;;21.83;61.37;100127.03;5094344;28;20213;-67
2021/08/08 10:53:22;;;;;;;3.57;1.20;;;;;;;21.46;61.95;100114.78;5094275;28;20249;-67
2021/08/08 10:55:49;;;;;;;2.33;1.03;;;;;;;21.20;59.46;100108.66;5094031;28;20174;-67
2021/08/08 10:58:15;;;;;;;2.00;0.90;;;;;;;21.45;59.50;100106.81;5094644;28;20558;-67
2021/08/08 11:00:40;;;;;;;1.37;1.00;;;;;;;21.71;58.57;100121.09;5094377;28;20257;-67
2021/08/08 11:03:14;;;;;;;4.00;0.90;;;;;;;21.80;58.31;100116.50;5094253;28;20190;-67
2021/08/08 11:05:40;;;;;;;7.00;1.20;;;;;;;22.51;56.60;100120.31;5094328;28;20189;-68
2021/08/08 11:08:09;;;;;;;2.70;0.90;;;;;;;23.67;52.70;100113.06;5093921;28;20209;-67
2021/08/08 11:10:38;;;;;;;1.40;0.83;;;;;;;25.17;48.91;100118.22;5075901;28;20285;-67
2021/08/08 11:13:03;;;;;;;2.73;1.10;;;;;;;23.56;52.49;100129.84;5093861;28;20225;-68
2021/08/08 11:15:36;;;;;;;6.07;3.23;;;;;;;22.27;56.03;100127.50;5075910;28;20213;-68
2021/08/08 11:18:01;;;;;;;1.50;0.83;;;;;;;20.58;61.14;100140.63;5093995;28;20591;-67
2021/08/08 11:20:30;;;;;;;4.90;3.90;;;;;;;20.40;63.12;100113.59;5094032;28;20202;-68
2021/08/08 11:23:02;;;;;;;1.73;1.30;;;;;;;19.61;67.68;100168.69;5093689;28;20239;-67